Time;durP1;ratioP1;P1;durP2;ratioP2;P2;SDS_P1;SDS_P2;PMS_P1;PMS_P2;Temp;Humidity;BMP_temperature;BMP_pressure;BME280_temperature;BME280_humidity;BME280_pressure;Samples;Min_cycle;Max_cycle;Signal;HPM_P1;HPM_P2
2021/01/10 00:00:25;;;;;;;63.35;29.20;;;;;;;-0.10;88.55;100679.12;1793891;79;25564;-54
2021/01/10 00:02:56;;;;;;;61.50;29.25;;;;;;;-0.09;88.57;100684.22;1793932;79;25442;-49
2021/01/10 00:05:35;;;;;;;62.43;29.75;;;;;;;-0.07;88.65;100690.64;1794014;79;26214;-56
2021/01/10 00:08:03;;;;;;;54.98;27.25;;;;;;;-0.05;88.76;100685.41;1793111;79;25859;-45
2021/01/10 00:10:31;;;;;;;54.23;25.48;;;;;;;-0.04;88.71;100685.67;1792913;79;25723;-52
2021/01/10 00:13:01;;;;;;;57.20;28.23;;;;;;;-0.03;88.76;100683.84;1793968;79;25479;-54
2021/01/10 00:15:29;;;;;;;54.83;26.93;;;;;;;-0.02;88.73;100684.13;1793621;79;25418;-53
2021/01/10 00:17:57;;;;;;;57.13;26.70;;;;;;;-0.01;88.75;100683.09;1767909;79;25708;-50
2021/01/10 00:20:24;;;;;;;56.73;28.25;;;;;;;0.02;88.79;100685.80;1793815;79;25464;-52
2021/01/10 00:22:54;;;;;;;46.75;24.18;;;;;;;0.04;88.83;100691.20;1789622;79;25430;-55
2021/01/10 00:25:21;;;;;;;51.65;26.97;;;;;;;0.06;88.74;100688.31;1784846;80;25794;-47
2021/01/10 00:27:49;;;;;;;54.38;26.48;;;;;;;0.05;88.69;100696.82;1754235;80;25716;-49
2021/01/10 00:30:19;;;;;;;57.15;26.77;;;;;;;0.06;88.72;100696.29;1784014;80;27261;-48
2021/01/10 00:32:51;;;;;;;53.13;26.25;;;;;;;0.03;88.60;100698.88;1784900;80;25730;-47
2021/01/10 00:35:19;;;;;;;68.02;32.45;;;;;;;0.05;88.72;100704.80;1785043;80;25524;-49
2021/01/10 00:37:52;;;;;;;64.40;31.80;;;;;;;0.03;88.66;100700.20;1784972;80;25458;-53
2021/01/10 00:40:20;;;;;;;60.03;28.57;;;;;;;0.02;88.66;100706.58;1784435;80;25444;-47
2021/01/10 00:42:48;;;;;;;57.15;27.60;;;;;;;0.04;88.74;100711.67;1785030;80;26651;-53
2021/01/10 00:45:15;;;;;;;54.42;26.77;;;;;;;0.04;88.69;100705.02;1784935;80;25440;-47
2021/01/10 00:47:42;;;;;;;58.28;26.07;;;;;;;0.04;88.66;100713.00;1784965;80;25443;-53
2021/01/10 00:50:10;;;;;;;55.33;27.02;;;;;;;0.03;88.73;100716.16;1784963;80;25458;-48
2021/01/10 00:52:37;;;;;;;52.50;26.15;;;;;;;0.05;88.78;100715.94;1784998;80;25466;-55
2021/01/10 00:55:07;;;;;;;60.45;28.10;;;;;;;0.05;88.89;100718.09;1784979;80;26640;-55
2021/01/10 00:57:35;;;;;;;54.77;26.85;;;;;;;0.03;88.85;100714.83;1784895;80;25470;-52
2021/01/10 01:00:07;;;;;;;54.95;26.05;;;;;;;0.07;88.83;100725.82;1784953;80;25491;-54
2021/01/10 01:02:34;;;;;;;56.05;26.73;;;;;;;0.07;88.79;100724.00;1784919;80;25481;-51
2021/01/10 01:05:00;;;;;;;61.63;26.82;;;;;;;0.06;88.80;100726.35;1785111;80;25485;-45
2021/01/10 01:07:27;;;;;;;56.25;27.02;;;;;;;0.03;88.75;100718.83;1784925;80;25697;-55
2021/01/10 01:09:54;;;;;;;57.78;28.55;;;;;;;0.03;88.82;100728.66;1784895;80;25465;-53
2021/01/10 01:12:21;;;;;;;63.75;31.33;;;;;;;0.02;88.85;100729.19;1783954;80;25612;-45
2021/01/10 01:14:47;;;;;;;55.58;26.55;;;;;;;0.03;88.93;100732.66;1784212;80;25785;-53
2021/01/10 01:17:14;;;;;;;64.60;30.17;;;;;;;0.05;89.07;100734.56;1784026;80;25957;-51
2021/01/10 01:19:41;;;;;;;60.40;27.10;;;;;;;0.02;88.92;100729.19;1783904;80;27120;-50
2021/01/10 01:22:07;;;;;;;57.00;28.10;;;;;;;0.01;88.94;100732.08;1783694;79;26266;-50
2021/01/10 01:24:35;;;;;;;61.53;28.10;;;;;;;0.02;89.07;100729.69;1783945;80;25674;-53
2021/01/10 01:27:01;;;;;;;59.35;26.85;;;;;;;0.03;89.08;100730.80;1783912;80;25844;-54
2021/01/10 01:29:28;;;;;;;59.18;26.40;;;;;;;0.03;89.04;100735.31;1783873;80;25703;-54
2021/01/10 01:31:55;;;;;;;61.53;28.23;;;;;;;0.01;89.01;100730.75;1784740;80;25750;-48
2021/01/10 01:34:22;;;;;;;54.77;27.15;;;;;;;0.02;89.06;100734.51;1784885;80;25490;-52
2021/01/10 01:36:48;;;;;;;67.50;29.95;;;;;;;0.02;89.09;100733.18;1784936;80;25558;-47
2021/01/10 01:39:15;;;;;;;60.17;27.73;;;;;;;0.01;89.10;100728.89;1784960;80;25999;-55
2021/01/10 01:41:42;;;;;;;69.35;29.55;;;;;;;0.03;89.15;100737.44;1784953;80;25403;-52
2021/01/10 01:44:09;;;;;;;66.87;29.30;;;;;;;0.03;89.18;100732.13;1784982;80;25692;-56
2021/01/10 01:46:37;;;;;;;62.95;27.40;;;;;;;0.04;89.13;100738.27;1784740;80;25548;-49
2021/01/10 01:49:08;;;;;;;61.42;27.85;;;;;;;0.04;89.14;100738.27;1784970;80;25537;-56
2021/01/10 01:51:36;;;;;;;64.12;27.90;;;;;;;0.03;89.17;100741.96;1784955;80;25398;-46
2021/01/10 01:54:06;;;;;;;66.35;27.35;;;;;;;0.04;89.18;100743.59;1784805;80;25393;-51
2021/01/10 01:56:34;;;;;;;61.48;27.85;;;;;;;0.02;89.17;100751.80;1784287;80;26741;-55
2021/01/10 01:59:07;;;;;;;64.03;27.55;;;;;;;0.03;89.25;100752.07;1784847;80;25422;-55
2021/01/10 02:01:37;;;;;;;61.20;26.75;;;;;;;0.05;89.29;100746.03;1784885;80;25438;-47
2021/01/10 02:04:33;;;;;;;60.03;26.42;;;;;;;0.05;89.26;100754.01;1785069;80;25489;-47
2021/01/10 02:07:20;;;;;;;65.65;28.95;;;;;;;0.03;89.21;100762.71;1784966;80;25465;-56
2021/01/10 02:09:54;;;;;;;68.33;30.02;;;;;;;0.03;89.27;100765.90;1784990;80;25903;-49
2021/01/10 02:12:22;;;;;;;67.03;29.23;;;;;;;0.04;89.31;100763.55;1784853;80;25631;-49
2021/01/10 02:15:00;;;;;;;60.78;27.65;;;;;;;0.03;89.33;100764.04;1784900;80;25449;-50
2021/01/10 02:17:28;;;;;;;60.45;27.73;;;;;;;0.02;89.30;100759.77;1784904;80;25485;-49
2021/01/10 02:20:08;;;;;;;60.88;27.50;;;;;;;0.02;89.33;100766.92;1754581;80;25427;-51
2021/01/10 02:23:12;;;;;;;67.78;28.77;;;;;;;0.01;89.38;100764.79;1781618;80;26671;-54
2021/01/10 02:25:45;;;;;;;62.70;28.15;;;;;;;0.02;89.40;100770.41;1784799;80;25469;-53
2021/01/10 02:28:19;;;;;;;68.50;28.90;;;;;;;0.04;89.47;100771.52;1785052;80;25485;-54
2021/01/10 02:30:46;;;;;;;60.52;27.58;;;;;;;0.04;89.50;100767.53;1784044;80;25845;-51
2021/01/10 02:33:49;;;;;;;64.75;28.92;;;;;;;0.06;89.48;100769.44;1784978;80;25422;-49
2021/01/10 02:36:38;;;;;;;63.05;27.30;;;;;;;0.05;89.45;100765.14;1754291;80;25962;-52
2021/01/10 02:39:28;;;;;;;69.12;28.55;;;;;;;0.04;89.47;100764.88;1784420;80;25414;-50
2021/01/10 02:42:13;;;;;;;63.65;27.85;;;;;;;0.04;89.46;100770.19;1784891;80;25432;-45
2021/01/10 02:44:45;;;;;;;64.47;28.02;;;;;;;0.05;89.48;100773.13;1784973;80;25461;-51
2021/01/10 02:47:11;;;;;;;63.17;27.85;;;;;;;0.04;89.52;100770.19;1783681;80;25480;-46
2021/01/10 02:49:39;;;;;;;60.08;28.20;;;;;;;0.05;89.61;100767.80;1784919;80;25705;-51
2021/01/10 02:52:06;;;;;;;65.50;27.35;;;;;;;0.05;89.56;100769.14;1784786;80;25593;-48
2021/01/10 02:54:32;;;;;;;73.20;29.20;;;;;;;0.06;89.61;100780.88;1784965;80;25860;-52
2021/01/10 02:57:15;;;;;;;70.97;30.40;;;;;;;0.07;89.67;100777.70;1784887;80;25563;-49
2021/01/10 02:59:41;;;;;;;63.83;28.75;;;;;;;0.07;89.67;100775.86;1784348;80;25477;-50
2021/01/10 03:02:10;;;;;;;68.10;28.85;;;;;;;0.07;89.66;100785.17;1784930;80;27730;-53
2021/01/10 03:04:37;;;;;;;63.78;26.35;;;;;;;0.06;89.63;100780.08;1784859;80;25800;-48
2021/01/10 03:07:06;;;;;;;66.75;27.07;;;;;;;0.06;89.65;100772.10;1784935;80;25555;-45
2021/01/10 03:09:33;;;;;;;72.00;28.95;;;;;;;0.04;89.61;100776.84;1784829;80;25778;-50
2021/01/10 03:12:25;;;;;;;76.20;29.82;;;;;;;0.03;89.64;100774.68;1784907;80;25421;-50
2021/01/10 03:14:58;;;;;;;66.62;28.20;;;;;;;0.03;89.68;100769.36;1784891;80;26015;-48
2021/01/10 03:17:39;;;;;;;66.05;28.07;;;;;;;0.04;89.77;100773.66;1784235;80;25421;-47
2021/01/10 03:20:10;;;;;;;69.62;27.60;;;;;;;0.05;89.78;100770.47;1784023;80;25469;-52
2021/01/10 03:22:37;;;;;;;65.95;27.35;;;;;;;0.04;89.77;100769.66;1784800;80;25787;-49
2021/01/10 03:25:06;;;;;;;66.97;28.67;;;;;;;0.05;89.84;100770.47;1793450;79;25372;-50
2021/01/10 03:27:34;;;;;;;66.60;29.32;;;;;;;0.08;89.87;100767.36;1793940;79;25783;-50
2021/01/10 03:30:04;;;;;;;68.30;29.42;;;;;;;0.09;89.87;100768.47;1793724;79;25387;-52
2021/01/10 03:32:31;;;;;;;69.80;29.18;;;;;;;0.09;89.83;100763.67;1793823;79;25446;-47
2021/01/10 03:34:58;;;;;;;77.60;31.55;;;;;;;0.10;89.85;100765.27;1793848;79;25433;-49
2021/01/10 03:37:24;;;;;;;66.12;27.98;;;;;;;0.11;89.81;100760.26;1793882;79;25785;-50
2021/01/10 03:39:52;;;;;;;65.80;28.77;;;;;;;0.10;89.80;100766.11;1793862;79;26836;-52
2021/01/10 03:42:19;;;;;;;61.28;27.25;;;;;;;0.09;89.72;100759.69;1793683;79;25430;-49
2021/01/10 03:44:45;;;;;;;61.37;26.68;;;;;;;0.10;89.78;100769.27;1793761;79;25488;-49
2021/01/10 03:47:12;;;;;;;62.55;27.60;;;;;;;0.09;89.77;100760.48;1793884;79;25402;-49
2021/01/10 03:49:39;;;;;;;61.98;25.57;;;;;;;0.09;89.82;100763.67;1793916;79;25470;-48
2021/01/10 03:52:05;;;;;;;65.15;28.02;;;;;;;0.10;89.83;100767.44;1793813;79;26937;-53
2021/01/10 03:54:32;;;;;;;61.50;26.85;;;;;;;0.11;89.89;100768.23;1793674;79;25450;-51
2021/01/10 03:56:59;;;;;;;59.93;26.97;;;;;;;0.13;89.96;100764.83;1793848;79;25568;-52
2021/01/10 03:59:26;;;;;;;62.00;26.57;;;;;;;0.13;89.92;100773.61;1793817;79;25508;-53
2021/01/10 04:01:52;;;;;;;62.80;27.17;;;;;;;0.15;90.00;100780.03;1767386;79;25411;-48
2021/01/10 04:04:19;;;;;;;55.25;23.92;;;;;;;0.17;89.98;100777.95;1793806;79;25701;-48
2021/01/10 04:06:46;;;;;;;39.08;20.08;;;;;;;0.20;90.02;100781.49;1793686;79;25516;-46
2021/01/10 04:09:12;;;;;;;27.60;14.98;;;;;;;0.21;89.81;100787.64;1793776;79;25679;-49
2021/01/10 04:11:39;;;;;;;25.82;13.60;;;;;;;0.21;89.68;100784.98;1793777;79;25787;-47
2021/01/10 04:14:06;;;;;;;28.70;14.25;;;;;;;0.20;89.62;100780.16;1793779;79;25810;-52
2021/01/10 04:16:32;;;;;;;29.30;14.55;;;;;;;0.22;89.71;100780.73;1793788;79;25689;-49
2021/01/10 04:18:59;;;;;;;32.63;16.20;;;;;;;0.24;89.80;100777.85;1793791;79;25422;-47
2021/01/10 04:21:36;;;;;;;30.75;16.73;;;;;;;0.25;89.80;100777.62;1793792;79;25651;-44
2021/01/10 04:24:04;;;;;;;35.88;16.10;;;;;;;0.27;89.78;100782.20;1790180;79;25820;-45
2021/01/10 04:26:38;;;;;;;32.63;15.75;;;;;;;0.28;89.77;100778.51;1784872;80;25421;-49
2021/01/10 04:29:06;;;;;;;35.68;17.52;;;;;;;0.31;89.87;100786.57;1785051;80;26557;-48
2021/01/10 04:31:32;;;;;;;35.35;16.93;;;;;;;0.35;89.92;100782.40;1784960;80;25405;-45
2021/01/10 04:33:59;;;;;;;37.85;16.87;;;;;;;0.36;89.83;100788.02;1784998;80;25456;-53
2021/01/10 04:36:28;;;;;;;39.63;18.00;;;;;;;0.39;89.96;100786.74;1785065;80;25570;-51
2021/01/10 04:38:57;;;;;;;41.05;18.70;;;;;;;0.41;89.95;100789.48;1784940;80;25843;-52
2021/01/10 04:41:25;;;;;;;36.73;18.32;;;;;;;0.44;89.87;100790.86;1785151;80;25695;-52
2021/01/10 04:43:54;;;;;;;30.95;15.35;;;;;;;0.44;89.79;100790.33;1784983;80;25636;-49
2021/01/10 04:46:23;;;;;;;25.75;14.38;;;;;;;0.44;89.72;100794.32;1785139;80;25792;-47
2021/01/10 04:48:51;;;;;;;29.82;14.95;;;;;;;0.46;89.66;100791.43;1754021;80;25504;-51
2021/01/10 04:51:18;;;;;;;24.43;13.15;;;;;;;0.46;89.59;100794.09;1785137;80;25431;-47
2021/01/10 04:53:50;;;;;;;25.68;13.60;;;;;;;0.47;89.61;100795.20;1785057;80;25766;-49
2021/01/10 04:56:18;;;;;;;26.35;13.78;;;;;;;0.48;89.64;100792.84;1784875;80;25458;-48
2021/01/10 04:58:52;;;;;;;27.17;13.75;;;;;;;0.48;89.48;100798.16;1784991;80;25446;-50
2021/01/10 05:01:25;;;;;;;27.10;13.85;;;;;;;0.48;89.38;100796.83;1784987;80;25489;-48
2021/01/10 05:03:56;;;;;;;28.10;13.78;;;;;;;0.48;89.39;100800.83;1785002;80;25497;-48
2021/01/10 05:06:23;;;;;;;27.30;14.68;;;;;;;0.48;89.39;100796.03;1785023;80;25903;-53
2021/01/10 05:08:50;;;;;;;35.92;16.67;;;;;;;0.48;89.36;100802.69;1784863;80;25465;-53
2021/01/10 05:11:17;;;;;;;33.18;15.83;;;;;;;0.45;89.11;100800.48;1785003;80;25518;-51
2021/01/10 05:13:44;;;;;;;32.85;14.85;;;;;;;0.43;89.11;100803.89;1784956;80;25766;-53
2021/01/10 05:16:19;;;;;;;30.97;16.12;;;;;;;0.42;89.15;100808.91;1785058;80;25754;-54
2021/01/10 05:18:54;;;;;;;28.47;14.60;;;;;;;0.41;89.19;100798.80;1785015;80;25757;-55
2021/01/10 05:21:25;;;;;;;26.57;13.58;;;;;;;0.39;89.11;100807.50;1784921;80;25744;-54
2021/01/10 05:23:56;;;;;;;26.95;14.00;;;;;;;0.38;89.17;100797.92;1784891;80;25600;-54
2021/01/10 05:26:25;;;;;;;30.52;15.83;;;;;;;0.38;89.17;100798.45;1784963;80;25480;-52
2021/01/10 05:28:53;;;;;;;38.85;18.23;;;;;;;0.36;89.19;100802.66;1783960;80;25470;-48
2021/01/10 05:31:42;;;;;;;42.00;19.15;;;;;;;0.34;89.16;100797.56;1784932;80;25894;-47
2021/01/10 05:34:15;;;;;;;42.50;19.48;;;;;;;0.34;89.19;100798.06;1785093;80;25387;-54
2021/01/10 05:36:42;;;;;;;51.15;20.60;;;;;;;0.33;89.36;100807.91;1783627;80;25388;-53
2021/01/10 05:39:20;;;;;;;54.88;23.65;;;;;;;0.34;89.39;100807.38;1784958;80;25485;-49
2021/01/10 05:41:54;;;;;;;54.55;24.25;;;;;;;0.34;89.47;100806.05;1785002;80;25402;-47
2021/01/10 05:44:23;;;;;;;52.27;23.35;;;;;;;0.34;89.51;100811.38;1785026;80;25692;-54
2021/01/10 05:47:04;;;;;;;61.42;25.23;;;;;;;0.34;89.55;100812.20;1785015;80;25482;-52
2021/01/10 05:49:31;;;;;;;54.73;24.85;;;;;;;0.35;89.61;100815.66;1784968;80;25485;-53
2021/01/10 05:52:10;;;;;;;61.05;26.15;;;;;;;0.34;89.59;100816.69;1784911;80;25434;-50
2021/01/10 05:54:48;;;;;;;60.15;24.82;;;;;;;0.33;89.62;100819.88;1785040;80;25483;-52
2021/01/10 05:57:26;;;;;;;53.73;24.40;;;;;;;0.30;89.53;100816.87;1784949;80;25758;-51
2021/01/10 05:59:55;;;;;;;61.28;25.08;;;;;;;0.27;89.50;100825.30;1784891;80;25423;-54
2021/01/10 06:02:32;;;;;;;69.65;27.15;;;;;;;0.25;89.58;100824.72;1784956;80;25653;-54
2021/01/10 06:05:20;;;;;;;68.28;27.35;;;;;;;0.26;89.67;100827.69;1784804;80;25398;-48
2021/01/10 06:07:49;;;;;;;60.90;25.27;;;;;;;0.27;89.72;100827.96;1785140;80;26049;-48
2021/01/10 06:10:28;;;;;;;66.22;25.52;;;;;;;0.26;89.75;100827.69;1785056;80;25697;-50
2021/01/10 06:13:05;;;;;;;65.97;27.58;;;;;;;0.25;89.71;100829.52;1785053;80;25950;-51
2021/01/10 06:15:34;;;;;;;57.75;25.70;;;;;;;0.28;89.79;100841.57;1784454;80;25470;-52
2021/01/10 06:18:02;;;;;;;55.43;22.62;;;;;;;0.28;89.79;100841.57;1784180;80;25768;-46
2021/01/10 06:20:32;;;;;;;56.30;22.30;;;;;;;0.27;89.73;100843.92;1784311;80;25842;-53
2021/01/10 06:23:01;;;;;;;;;;;;;;;0.24;89.61;100847.03;1787074;80;27070;-53
2021/01/10 06:25:31;;;;;;;50.58;21.80;;;;;;;0.23;89.69;100848.09;1784509;80;25466;-48
2021/01/10 06:28:15;;;;;;;56.73;23.80;;;;;;;0.22;89.74;100854.44;1783887;80;25726;-47
2021/01/10 06:31:01;;;;;;;44.60;19.85;;;;;;;0.21;89.82;100860.28;1783958;80;25769;-48
2021/01/10 06:33:31;;;;;;;33.30;17.02;;;;;;;0.23;89.85;100864.05;1784051;80;25714;-52
2021/01/10 06:36:05;;;;;;;35.03;17.20;;;;;;;0.21;89.67;100869.59;1783675;80;27220;-47
2021/01/10 06:38:37;;;;;;;39.53;17.55;;;;;;;0.21;89.54;100870.13;1783901;80;25920;-47
2021/01/10 06:41:33;;;;;;;32.70;16.55;;;;;;;0.21;89.43;100880.77;1784030;80;25926;-47
2021/01/10 06:44:02;;;;;;;32.45;16.40;;;;;;;0.18;89.36;100884.16;1783738;80;25746;-53
2021/01/10 06:46:30;;;;;;;36.90;17.90;;;;;;;0.16;89.34;100886.23;1784121;80;25714;-53
2021/01/10 06:48:57;;;;;;;36.20;16.67;;;;;;;0.16;89.21;100885.42;1783715;80;25886;-47
2021/01/10 06:51:31;;;;;;;38.75;17.25;;;;;;;0.14;89.31;100892.30;1783595;80;25663;-48
2021/01/10 06:54:04;;;;;;;40.40;18.70;;;;;;;0.14;89.32;100890.97;1783693;80;25753;-54
2021/01/10 06:56:32;;;;;;;33.80;18.17;;;;;;;0.15;89.35;100887.78;1783875;80;25638;-54
2021/01/10 06:59:24;;;;;;;36.10;18.02;;;;;;;0.14;89.32;100888.31;1783942;80;26336;-47
2021/01/10 07:01:57;;;;;;;36.55;18.23;;;;;;;0.15;89.28;100885.95;1783957;80;26657;-47
2021/01/10 07:04:34;;;;;;;38.23;18.67;;;;;;;0.16;89.27;100890.75;1783861;80;25726;-53
2021/01/10 07:07:01;;;;;;;40.33;18.15;;;;;;;0.16;89.26;100893.41;1781361;80;25615;-46
2021/01/10 07:09:33;;;;;;;37.05;17.82;;;;;;;0.16;89.26;100892.08;1783835;80;25825;-53
2021/01/10 07:12:00;;;;;;;34.48;18.27;;;;;;;0.16;89.24;100899.53;1776543;80;25667;-54
2021/01/10 07:14:28;;;;;;;42.50;19.10;;;;;;;0.17;89.19;100904.33;1783990;80;25739;-53
2021/01/10 07:17:11;;;;;;;37.70;18.55;;;;;;;0.17;89.15;100904.33;1783349;80;25659;-52
2021/01/10 07:19:44;;;;;;;38.00;18.20;;;;;;;0.15;89.06;100905.91;1783929;80;25664;-51
2021/01/10 07:22:24;;;;;;;33.35;17.55;;;;;;;0.16;89.11;100912.03;1791925;78;25758;-53
2021/01/10 07:25:34;;;;;;;34.97;17.23;;;;;;;0.25;89.14;100922.65;1846703;76;32887;-58
2021/01/10 07:28:35;;;;;;;37.35;18.10;;;;;;;0.18;89.09;100914.75;1816914;78;25709;-46
2021/01/10 07:31:13;;;;;;;40.17;18.15;;;;;;;0.18;89.11;100913.95;1816945;78;26836;-48
2021/01/10 07:33:41;;;;;;;40.37;18.67;;;;;;;0.29;89.12;100931.83;1816906;78;25685;-52
2021/01/10 07:36:09;;;;;;;36.08;18.15;;;;;;;0.29;89.12;100931.83;1816868;78;25749;-56
2021/01/10 07:38:37;;;;;;;35.08;17.80;;;;;;;0.23;89.06;100923.92;1816859;78;25862;-55
2021/01/10 07:41:28;;;;;;;35.30;17.75;;;;;;;0.23;89.04;100920.73;1816907;78;25680;-55
2021/01/10 07:43:57;;;;;;;37.00;18.27;;;;;;;0.24;89.08;100923.70;1779993;79;25918;-48
2021/01/10 07:46:57;;;;;;;41.75;20.15;;;;;;;0.26;89.04;100924.28;1795902;79;25777;-55
2021/01/10 07:49:30;;;;;;;42.08;20.57;;;;;;;0.27;89.05;100922.42;1787511;80;25734;-57
2021/01/10 07:51:58;;;;;;;45.40;21.25;;;;;;;0.28;89.03;100920.88;1787349;80;25614;-57
2021/01/10 07:54:56;;;;;;;44.75;21.62;;;;;;;0.28;88.96;100921.40;1787495;80;25586;-56
2021/01/10 07:57:32;;;;;;;46.37;21.82;;;;;;;0.29;89.00;100929.16;1729912;82;25972;-55
2021/01/10 08:00:13;;;;;;;43.10;21.85;;;;;;;0.30;89.02;100924.12;1729800;82;25755;-56
2021/01/10 08:03:09;;;;;;;38.53;19.12;;;;;;;0.39;89.04;100936.59;1846759;76;33533;-55
2021/01/10 08:05:39;;;;;;;39.60;19.85;;;;;;;0.33;89.02;100940.16;1816912;78;26002;-55
2021/01/10 08:08:20;;;;;;;42.50;21.10;;;;;;;0.33;88.94;100944.96;1816843;78;26715;-50
2021/01/10 08:10:53;;;;;;;45.05;21.33;;;;;;;0.36;88.98;100950.38;1816856;78;25790;-55
2021/01/10 08:13:44;;;;;;;41.92;20.20;;;;;;;0.38;88.95;100952.81;1816673;78;25664;-45
2021/01/10 08:16:14;;;;;;;37.13;20.17;;;;;;;0.39;88.89;100958.41;1816801;78;25776;-54
2021/01/10 08:18:45;;;;;;;42.25;20.90;;;;;;;0.40;88.98;100958.19;1807300;78;26434;-55
2021/01/10 08:21:16;;;;;;;;;;;;;;;0.43;88.98;100959.60;1818897;78;26774;-47
2021/01/10 08:23:46;;;;;;;39.15;18.87;;;;;;;0.45;88.95;100958.33;1816776;78;26341;-45
2021/01/10 08:26:16;;;;;;;40.90;19.85;;;;;;;0.47;88.92;100954.11;1816853;78;26325;-45
2021/01/10 08:28:51;;;;;;;44.27;20.95;;;;;;;0.47;88.72;100958.10;1816784;78;25215;-55
2021/01/10 08:31:22;;;;;;;47.73;22.22;;;;;;;0.45;88.52;100962.31;1816916;78;25657;-56
2021/01/10 08:34:05;;;;;;;47.43;21.45;;;;;;;0.47;88.61;100967.41;1785034;78;25958;-55
2021/01/10 08:36:33;;;;;;;45.00;22.17;;;;;;;0.48;88.67;100970.39;1816770;78;25782;-56
2021/01/10 08:39:04;;;;;;;45.12;23.27;;;;;;;0.50;88.74;100967.78;1816917;78;25666;-56
2021/01/10 08:41:37;;;;;;;45.80;22.95;;;;;;;0.52;88.69;100975.02;1814889;78;26324;-49
2021/01/10 08:44:18;;;;;;;49.33;22.93;;;;;;;0.51;88.52;100977.90;1779725;80;25815;-53
2021/01/10 08:46:51;;;;;;;46.95;22.87;;;;;;;0.54;88.65;100981.45;1784684;80;25755;-54
2021/01/10 08:49:23;;;;;;;48.25;22.95;;;;;;;0.57;88.79;100982.86;1784484;80;25763;-54
2021/01/10 08:51:49;;;;;;;51.18;23.30;;;;;;;0.59;88.74;100980.25;1784660;80;25736;-54
2021/01/10 08:54:23;;;;;;;47.33;22.62;;;;;;;0.60;88.71;100981.89;1784491;80;25589;-49
2021/01/10 08:56:54;;;;;;;45.45;22.98;;;;;;;0.63;88.66;100976.12;1784609;80;25631;-54
2021/01/10 08:59:22;;;;;;;46.70;22.35;;;;;;;0.66;88.73;100977.50;1784775;80;26644;-54
2021/01/10 09:01:50;;;;;;;50.92;24.32;;;;;;;0.70;88.78;100981.35;1787048;80;25727;-44
2021/01/10 09:04:17;;;;;;;45.30;23.02;;;;;;;0.73;88.83;100981.71;1790569;79;26058;-54
2021/01/10 09:06:58;;;;;;;47.85;23.75;;;;;;;0.77;88.79;100981.23;1790440;80;25678;-53
2021/01/10 09:10:03;;;;;;;51.25;24.77;;;;;;;0.81;88.94;100979.23;1790498;80;25722;-52
2021/01/10 09:12:44;;;;;;;56.00;26.12;;;;;;;0.85;88.80;100976.42;1790176;78;26656;-50
2021/01/10 09:15:21;;;;;;;55.20;26.20;;;;;;;0.87;88.59;100979.67;1789569;80;25640;-53
2021/01/10 09:17:54;;;;;;;57.43;26.70;;;;;;;0.88;88.51;100988.46;1789926;80;25607;-51
2021/01/10 09:20:31;;;;;;;48.52;24.57;;;;;;;0.88;88.51;100987.93;1789636;80;25629;-45
2021/01/10 09:22:59;;;;;;;57.35;27.58;;;;;;;0.90;88.53;100990.38;1788933;80;25718;-52
2021/01/10 09:25:29;;;;;;;54.98;26.73;;;;;;;0.91;88.38;100991.48;1789840;80;25769;-52
2021/01/10 09:28:11;;;;;;;55.90;26.30;;;;;;;0.92;88.26;101000.30;1789497;80;25927;-47
2021/01/10 09:30:42;;;;;;;56.25;27.32;;;;;;;0.92;88.19;100995.78;1789898;80;26018;-47
2021/01/10 09:33:09;;;;;;;51.98;26.73;;;;;;;0.92;88.21;101002.44;1789748;80;25671;-53
2021/01/10 09:35:43;;;;;;;56.00;26.57;;;;;;;0.93;88.15;101000.05;1789815;80;25813;-50
2021/01/10 09:38:14;;;;;;;60.38;29.10;;;;;;;0.95;88.15;100998.48;1789841;80;25759;-51
2021/01/10 09:41:07;;;;;;;62.00;29.25;;;;;;;0.97;88.23;100999.59;1789855;80;25842;-47
2021/01/10 09:43:38;;;;;;;54.63;26.77;;;;;;;0.98;88.24;100995.38;1789812;80;25674;-53
2021/01/10 09:46:28;;;;;;;55.05;25.00;;;;;;;1.00;88.13;100989.30;1789538;80;25691;-56
2021/01/10 09:49:06;;;;;;;51.10;26.25;;;;;;;1.03;88.16;100994.70;1790064;80;25727;-53
2021/01/10 09:51:42;;;;;;;57.70;27.27;;;;;;;1.05;88.10;100996.61;1789851;80;25906;-47
2021/01/10 09:54:23;;;;;;;58.75;27.42;;;;;;;1.05;88.05;100989.42;1789619;80;25697;-54
2021/01/10 09:56:55;;;;;;;54.80;28.00;;;;;;;1.08;88.11;100986.84;1789681;80;26348;-54
2021/01/10 09:59:36;;;;;;;56.90;27.30;;;;;;;1.09;88.15;100982.62;1789869;80;25694;-54
2021/01/10 10:02:25;;;;;;;97.85;46.95;;;;;;;1.12;88.01;100981.33;1787362;80;26266;-51
2021/01/10 10:04:54;;;;;;;72.32;34.50;;;;;;;1.16;88.17;100980.34;1784117;80;25765;-45
2021/01/10 10:07:41;;;;;;;66.00;30.37;;;;;;;1.22;88.37;100982.11;1783990;80;25643;-47
2021/01/10 10:10:26;;;;;;;66.45;29.07;;;;;;;1.25;88.26;100977.13;1784004;80;25716;-51
2021/01/10 10:12:58;;;;;;;60.70;28.17;;;;;;;1.30;88.36;100981.78;1783907;80;25654;-52
2021/01/10 10:15:46;;;;;;;61.60;29.52;;;;;;;1.33;88.14;100981.83;1784182;80;25657;-54
2021/01/10 10:18:19;;;;;;;59.40;27.75;;;;;;;1.35;88.01;100979.23;1783981;80;27165;-51
2021/01/10 10:20:47;;;;;;;52.38;27.32;;;;;;;1.37;88.04;100980.34;1783949;80;25645;-52
2021/01/10 10:23:15;;;;;;;51.08;26.48;;;;;;;1.38;87.99;100973.45;1783879;80;26293;-51
2021/01/10 10:25:48;;;;;;;61.18;29.82;;;;;;;1.40;88.00;100976.69;1783771;80;25713;-51
2021/01/10 10:28:16;;;;;;;57.10;27.55;;;;;;;1.41;87.84;100972.95;1783998;80;25714;-46
2021/01/10 10:30:45;;;;;;;59.30;29.92;;;;;;;1.42;87.72;100977.27;1783957;78;27203;-52
2021/01/10 10:33:11;;;;;;;58.45;28.35;;;;;;;1.42;87.67;100975.13;1783820;80;25702;-54
2021/01/10 10:35:39;;;;;;;60.25;28.45;;;;;;;1.44;87.64;100979.70;1783957;80;26355;-54
2021/01/10 10:38:06;;;;;;;57.10;27.55;;;;;;;1.46;87.81;100976.27;1783933;80;26061;-50
2021/01/10 10:40:34;;;;;;;58.35;28.40;;;;;;;1.49;87.74;100975.81;1783927;80;25658;-51
2021/01/10 10:43:02;;;;;;;51.65;26.17;;;;;;;1.50;87.72;100976.12;1783841;80;25739;-50
2021/01/10 10:45:30;;;;;;;52.85;27.30;;;;;;;1.50;87.44;100976.12;1784010;80;25766;-49
2021/01/10 10:47:57;;;;;;;56.65;27.80;;;;;;;1.47;87.32;100978.71;1783872;80;25722;-54
2021/01/10 10:50:24;;;;;;;54.83;29.50;;;;;;;1.45;87.14;100974.14;1783881;80;25691;-52
2021/01/10 10:52:51;;;;;;;57.78;28.80;;;;;;;1.45;87.36;100979.47;1783776;80;25790;-50
2021/01/10 10:55:21;;;;;;;60.60;30.37;;;;;;;1.46;87.50;100969.11;1784058;80;26185;-52
2021/01/10 10:57:48;;;;;;;89.15;43.40;;;;;;;1.49;87.62;100968.63;1783978;80;25633;-50
2021/01/10 11:00:16;;;;;;;58.42;29.87;;;;;;;1.52;87.68;100970.56;1783960;80;25730;-52
2021/01/10 11:02:44;;;;;;;58.85;29.27;;;;;;;1.52;87.45;100968.69;1786917;80;25635;-49
2021/01/10 11:05:12;;;;;;;56.25;29.20;;;;;;;1.52;87.44;100971.36;1789834;80;25634;-48
2021/01/10 11:07:39;;;;;;;58.05;28.27;;;;;;;1.54;87.51;100971.13;1789790;80;25981;-50
2021/01/10 11:10:08;;;;;;;53.35;27.32;;;;;;;1.53;87.43;100961.50;1789725;80;25623;-51
2021/01/10 11:12:35;;;;;;;50.23;26.60;;;;;;;1.53;87.23;100963.63;1789594;80;25733;-48
2021/01/10 11:15:05;;;;;;;50.70;25.43;;;;;;;1.52;87.27;100967.36;1789704;80;25632;-55
2021/01/10 11:17:32;;;;;;;46.63;24.35;;;;;;;1.51;87.29;100968.39;1789952;80;25658;-52
2021/01/10 11:20:01;;;;;;;56.65;26.37;;;;;;;1.50;87.24;100965.45;1789495;80;26163;-50
2021/01/10 11:22:34;;;;;;;55.12;26.37;;;;;;;1.48;87.19;100975.52;1789693;80;25643;-45
2021/01/10 11:24:57;;;;;;;48.38;26.17;;;;;;;1.48;87.33;100972.34;1788523;80;26428;-45
2021/01/10 11:27:23;;;;;;;56.92;26.42;;;;;;;1.51;87.41;100976.39;1789046;78;26281;-57
2021/01/10 11:29:50;;;;;;;53.35;27.10;;;;;;;1.52;87.63;100967.36;1789465;78;25749;-56
2021/01/10 11:32:17;;;;;;;53.25;26.95;;;;;;;1.56;87.60;100973.04;1789609;80;26934;-57
2021/01/10 11:34:44;;;;;;;56.80;27.50;;;;;;;1.58;87.59;100970.95;1789583;80;26359;-54
2021/01/10 11:37:12;;;;;;;56.90;29.12;;;;;;;1.60;87.53;100964.85;1789625;80;26431;-56
2021/01/10 11:39:39;;;;;;;56.68;28.40;;;;;;;1.61;87.47;100969.95;1789603;80;25666;-58